sensor_id;sensor_type;location;lat;lon;timestamp;temperature;humidity
11497;DHT22;5805;51.542;7.230;2023-04-03T00:00:20;4.80;99.90
11497;DHT22;5805;51.542;7.230;2023-04-03T00:02:46;4.70;99.90
11497;DHT22;5805;51.542;7.230;2023-04-03T00:05:11;4.70;99.90
11497;DHT22;5805;51.542;7.230;2023-04-03T00:07:37;4.70;99.90
11497;DHT22;5805;51.542;7.230;2023-04-03T00:10:04;5.30;99.90
11497;DHT22;5805;51.542;7.230;2023-04-03T00:12:29;4.60;99.90
11497;DHT22;5805;51.542;7.230;2023-04-03T00:14:55;4.70;99.90
11497;DHT22;5805;51.542;7.230;2023-04-03T00:17:22;5.50;99.90
11497;DHT22;5805;51.542;7.230;2023-04-03T00:19:48;4.60;99.90
11497;DHT22;5805;51.542;7.230;2023-04-03T00:22:13;4.70;99.90
11497;DHT22;5805;51.542;7.230;2023-04-03T00:24:39;4.90;99.90
11497;DHT22;5805;51.542;7.230;2023-04-03T00:27:05;6.00;99.90
11497;DHT22;5805;51.542;7.230;2023-04-03T00:29:30;4.70;99.90
11497;DHT22;5805;51.542;7.230;2023-04-03T00:31:56;4.80;99.90
11497;DHT22;5805;51.542;7.230;2023-04-03T00:34:24;4.80;99.90
11497;DHT22;5805;51.542;7.230;2023-04-03T00:36:50;4.80;99.90
11497;DHT22;5805;51.542;7.230;2023-04-03T00:39:16;4.80;99.90
11497;DHT22;5805;51.542;7.230;2023-04-03T00:41:41;4.80;99.90
11497;DHT22;5805;51.542;7.230;2023-04-03T00:47:27;4.70;99.90
11497;DHT22;5805;51.542;7.230;2023-04-03T00:49:54;5.20;99.90
11497;DHT22;5805;51.542;7.230;2023-04-03T00:52:25;4.60;99.90
11497;DHT22;5805;51.542;7.230;2023-04-03T00:54:56;4.50;99.90
11497;DHT22;5805;51.542;7.230;2023-04-03T00:57:24;5.50;99.90
11497;DHT22;5805;51.542;7.230;2023-04-03T00:59:54;4.60;99.90
11497;DHT22;5805;51.542;7.230;2023-04-03T01:02:21;4.60;99.90
11497;DHT22;5805;51.542;7.230;2023-04-03T01:04:46;4.60;99.90
11497;DHT22;5805;51.542;7.230;2023-04-03T01:07:16;4.50;99.90
11497;DHT22;5805;51.542;7.230;2023-04-03T01:09:43;4.50;99.90
11497;DHT22;5805;51.542;7.230;2023-04-03T01:12:14;4.50;99.90
11497;DHT22;5805;51.542;7.230;2023-04-03T01:14:40;5.00;99.90
11497;DHT22;5805;51.542;7.230;2023-04-03T01:17:24;4.50;99.90
11497;DHT22;5805;51.542;7.230;2023-04-03T01:20:02;4.50;99.90
11497;DHT22;5805;51.542;7.230;2023-04-03T01:22:44;4.80;99.90
11497;DHT22;5805;51.542;7.230;2023-04-03T01:25:12;4.50;99.90
11497;DHT22;5805;51.542;7.230;2023-04-03T01:27:37;4.60;99.90
11497;DHT22;5805;51.542;7.230;2023-04-03T01:30:04;4.60;99.90
11497;DHT22;5805;51.542;7.230;2023-04-03T01:32:31;4.60;99.90
11497;DHT22;5805;51.542;7.230;2023-04-03T01:34:57;4.70;99.90
11497;DHT22;5805;51.542;7.230;2023-04-03T01:37:22;4.60;99.90
11497;DHT22;5805;51.542;7.230;2023-04-03T01:39:48;4.60;99.90
11497;DHT22;5805;51.542;7.230;2023-04-03T01:42:14;5.20;99.90
11497;DHT22;5805;51.542;7.230;2023-04-03T01:44:39;5.10;99.90
11497;DHT22;5805;51.542;7.230;2023-04-03T01:47:06;5.80;99.90
11497;DHT22;5805;51.542;7.230;2023-04-03T01:49:33;4.60;99.90
11497;DHT22;5805;51.542;7.230;2023-04-03T01:51:58;4.70;99.90
11497;DHT22;5805;51.542;7.230;2023-04-03T01:54:24;4.60;99.90
11497;DHT22;5805;51.542;7.230;2023-04-03T01:56:50;4.60;99.90
11497;DHT22;5805;51.542;7.230;2023-04-03T01:59:16;4.60;99.90
11497;DHT22;5805;51.542;7.230;2023-04-03T02:01:41;4.60;99.90
11497;DHT22;5805;51.542;7.230;2023-04-03T02:04:07;4.60;99.90
11497;DHT22;5805;51.542;7.230;2023-04-03T02:06:34;4.60;99.90
11497;DHT22;5805;51.542;7.230;2023-04-03T02:09:00;4.60;99.90
11497;DHT22;5805;51.542;7.230;2023-04-03T02:11:25;5.00;99.90
11497;DHT22;5805;51.542;7.230;2023-04-03T02:13:51;4.60;99.90
11497;DHT22;5805;51.542;7.230;2023-04-03T02:16:17;4.60;99.90
11497;DHT22;5805;51.542;7.230;2023-04-03T02:18:43;4.60;99.90
11497;DHT22;5805;51.542;7.230;2023-04-03T02:21:09;4.60;99.90
11497;DHT22;5805;51.542;7.230;2023-04-03T02:23:36;4.80;99.90
11497;DHT22;5805;51.542;7.230;2023-04-03T02:26:06;4.60;99.90
11497;DHT22;5805;51.542;7.230;2023-04-03T02:28:32;4.50;99.90
11497;DHT22;5805;51.542;7.230;2023-04-03T02:30:58;5.00;99.90
11497;DHT22;5805;51.542;7.230;2023-04-03T02:33:24;4.50;99.90
11497;DHT22;5805;51.542;7.230;2023-04-03T02:35:52;4.90;99.90
11497;DHT22;5805;51.542;7.230;2023-04-03T02:38:18;4.40;99.90
11497;DHT22;5805;51.542;7.230;2023-04-03T02:40:45;4.40;99.90
11497;DHT22;5805;51.542;7.230;2023-04-03T02:43:11;4.40;99.90
11497;DHT22;5805;51.542;7.230;2023-04-03T02:45:36;4.40;99.90
11497;DHT22;5805;51.542;7.230;2023-04-03T02:48:02;4.50;99.90
11497;DHT22;5805;51.542;7.230;2023-04-03T02:50:28;4.30;99.90
11497;DHT22;5805;51.542;7.230;2023-04-03T02:52:54;4.30;99.90
11497;DHT22;5805;51.542;7.230;2023-04-03T02:55:19;4.30;99.90
11497;DHT22;5805;51.542;7.230;2023-04-03T02:57:46;4.20;99.90
11497;DHT22;5805;51.542;7.230;2023-04-03T03:00:13;4.30;99.90
11497;DHT22;5805;51.542;7.230;2023-04-03T03:02:39;4.30;99.90
11497;DHT22;5805;51.542;7.230;2023-04-03T03:05:05;4.30;99.90
11497;DHT22;5805;51.542;7.230;2023-04-03T03:07:30;4.20;99.90
11497;DHT22;5805;51.542;7.230;2023-04-03T03:09:56;4.20;99.90
11497;DHT22;5805;51.542;7.230;2023-04-03T03:12:22;4.20;99.90
11497;DHT22;5805;51.542;7.230;2023-04-03T03:14:49;5.20;99.90
11497;DHT22;5805;51.542;7.230;2023-04-03T03:17:15;4.40;99.90
11497;DHT22;5805;51.542;7.230;2023-04-03T03:19:41;4.10;99.90
11497;DHT22;5805;51.542;7.230;2023-04-03T03:22:07;4.60;99.90
11497;DHT22;5805;51.542;7.230;2023-04-03T03:24:33;6.40;99.90
11497;DHT22;5805;51.542;7.230;2023-04-03T03:26:58;4.00;99.90
11497;DHT22;5805;51.542;7.230;2023-04-03T03:29:24;5.00;99.90
11497;DHT22;5805;51.542;7.230;2023-04-03T03:31:51;5.10;99.90
11497;DHT22;5805;51.542;7.230;2023-04-03T03:34:17;4.50;99.90
11497;DHT22;5805;51.542;7.230;2023-04-03T03:36:43;3.90;99.90
11497;DHT22;5805;51.542;7.230;2023-04-03T03:39:09;3.90;99.90
11497;DHT22;5805;51.542;7.230;2023-04-03T03:41:35;4.40;99.90
11497;DHT22;5805;51.542;7.230;2023-04-03T03:44:01;3.90;99.90
11497;DHT22;5805;51.542;7.230;2023-04-03T03:46:27;3.80;99.90
11497;DHT22;5805;51.542;7.230;2023-04-03T03:48:54;3.80;99.90
11497;DHT22;5805;51.542;7.230;2023-04-03T03:51:19;3.80;99.90
11497;DHT22;5805;51.542;7.230;2023-04-03T03:53:45;5.10;99.90
11497;DHT22;5805;51.542;7.230;2023-04-03T03:56:11;3.60;99.90
11497;DHT22;5805;51.542;7.230;2023-04-03T03:58:37;3.60;99.90
11497;DHT22;5805;51.542;7.230;2023-04-03T04:01:03;4.50;99.90
11497;DHT22;5805;51.542;7.230;2023-04-03T04:03:29;4.20;99.90
11497;DHT22;5805;51.542;7.230;2023-04-03T04:05:56;3.50;99.90
11497;DHT22;5805;51.542;7.230;2023-04-03T04:08:22;4.40;99.90
11497;DHT22;5805;51.542;7.230;2023-04-03T04:10:47;3.60;99.90
11497;DHT22;5805;51.542;7.230;2023-04-03T04:13:13;3.70;99.90
11497;DHT22;5805;51.542;7.230;2023-04-03T04:15:39;3.60;99.90
11497;DHT22;5805;51.542;7.230;2023-04-03T04:18:04;3.60;99.90
11497;DHT22;5805;51.542;7.230;2023-04-03T04:20:30;3.90;99.90
11497;DHT22;5805;51.542;7.230;2023-04-03T04:22:57;4.60;99.90
11497;DHT22;5805;51.542;7.230;2023-04-03T04:25:23;3.70;99.90
11497;DHT22;5805;51.542;7.230;2023-04-03T04:27:48;3.70;99.90
11497;DHT22;5805;51.542;7.230;2023-04-03T04:30:14;3.60;99.90
11497;DHT22;5805;51.542;7.230;2023-04-03T04:32:40;4.30;99.90
11497;DHT22;5805;51.542;7.230;2023-04-03T04:35:06;5.00;99.90
11497;DHT22;5805;51.542;7.230;2023-04-03T04:37:32;3.60;99.90
11497;DHT22;5805;51.542;7.230;2023-04-03T04:39:59;3.50;99.90
11497;DHT22;5805;51.542;7.230;2023-04-03T04:42:25;3.90;99.90
11497;DHT22;5805;51.542;7.230;2023-04-03T04:44:51;4.10;99.90
11497;DHT22;5805;51.542;7.230;2023-04-03T04:47:17;3.40;99.90
11497;DHT22;5805;51.542;7.230;2023-04-03T04:49:42;4.00;99.90
11497;DHT22;5805;51.542;7.230;2023-04-03T04:52:08;4.20;99.90
11497;DHT22;5805;51.542;7.230;2023-04-03T04:54:34;4.00;99.90
11497;DHT22;5805;51.542;7.230;2023-04-03T04:57:01;4.50;99.90
11497;DHT22;5805;51.542;7.230;2023-04-03T04:59:26;4.40;99.90
11497;DHT22;5805;51.542;7.230;2023-04-03T05:01:52;4.10;99.90
11497;DHT22;5805;51.542;7.230;2023-04-03T05:04:18;3.40;99.90
11497;DHT22;5805;51.542;7.230;2023-04-03T05:06:43;3.40;99.90
11497;DHT22;5805;51.542;7.230;2023-04-03T05:09:09;3.40;99.90
11497;DHT22;5805;51.542;7.230;2023-04-03T05:11:35;3.30;99.90
11497;DHT22;5805;51.542;7.230;2023-04-03T05:14:02;3.30;99.90
11497;DHT22;5805;51.542;7.230;2023-04-03T05:16:28;3.20;99.90
11497;DHT22;5805;51.542;7.230;2023-04-03T05:18:53;3.20;99.90
11497;DHT22;5805;51.542;7.230;2023-04-03T05:21:19;3.20;99.90
11497;DHT22;5805;51.542;7.230;2023-04-03T05:23:45;3.20;99.90
11497;DHT22;5805;51.542;7.230;2023-04-03T05:26:10;3.20;99.90
11497;DHT22;5805;51.542;7.230;2023-04-03T05:28:36;4.60;99.90
11497;DHT22;5805;51.542;7.230;2023-04-03T05:31:03;3.30;99.90
11497;DHT22;5805;51.542;7.230;2023-04-03T05:33:29;3.30;99.90
11497;DHT22;5805;51.542;7.230;2023-04-03T05:35:55;3.30;99.90
11497;DHT22;5805;51.542;7.230;2023-04-03T05:38:20;4.30;99.90
11497;DHT22;5805;51.542;7.230;2023-04-03T05:40:46;4.30;99.90
11497;DHT22;5805;51.542;7.230;2023-04-03T05:43:12;3.30;99.90
11497;DHT22;5805;51.542;7.230;2023-04-03T05:45:38;3.20;99.90
11497;DHT22;5805;51.542;7.230;2023-04-03T05:48:05;3.30;99.90
11497;DHT22;5805;51.542;7.230;2023-04-03T05:50:31;3.30;99.90
11497;DHT22;5805;51.542;7.230;2023-04-03T05:52:57;3.30;99.90
11497;DHT22;5805;51.542;7.230;2023-04-03T05:55:24;4.30;99.90
11497;DHT22;5805;51.542;7.230;2023-04-03T05:57:50;3.70;99.90
11497;DHT22;5805;51.542;7.230;2023-04-03T06:00:16;4.30;99.90
11497;DHT22;5805;51.542;7.230;2023-04-03T06:02:42;3.20;99.90
11497;DHT22;5805;51.542;7.230;2023-04-03T06:05:09;3.20;99.90
11497;DHT22;5805;51.542;7.230;2023-04-03T06:07:35;3.30;99.90
11497;DHT22;5805;51.542;7.230;2023-04-03T06:10:02;3.20;99.90
11497;DHT22;5805;51.542;7.230;2023-04-03T06:12:28;3.30;99.90
11497;DHT22;5805;51.542;7.230;2023-04-03T06:14:54;3.30;99.90
11497;DHT22;5805;51.542;7.230;2023-04-03T06:17:19;3.10;99.90
11497;DHT22;5805;51.542;7.230;2023-04-03T06:19:45;3.00;99.90
11497;DHT22;5805;51.542;7.230;2023-04-03T06:22:12;3.10;99.90
11497;DHT22;5805;51.542;7.230;2023-04-03T06:24:38;3.10;99.90
11497;DHT22;5805;51.542;7.230;2023-04-03T06:27:04;3.20;99.90
11497;DHT22;5805;51.542;7.230;2023-04-03T06:29:30;3.30;99.90
11497;DHT22;5805;51.542;7.230;2023-04-03T06:31:56;3.30;99.90
11497;DHT22;5805;51.542;7.230;2023-04-03T06:34:21;3.50;99.90
11497;DHT22;5805;51.542;7.230;2023-04-03T06:36:47;3.60;99.90
11497;DHT22;5805;51.542;7.230;2023-04-03T06:39:16;4.10;99.90
11497;DHT22;5805;51.542;7.230;2023-04-03T06:41:42;4.10;99.90
11497;DHT22;5805;51.542;7.230;2023-04-03T06:44:08;4.40;99.90
11497;DHT22;5805;51.542;7.230;2023-04-03T06:46:34;5.50;99.90
11497;DHT22;5805;51.542;7.230;2023-04-03T06:48:59;6.60;99.90
11497;DHT22;5805;51.542;7.230;2023-04-03T06:51:26;8.10;99.90
11497;DHT22;5805;51.542;7.230;2023-04-03T06:53:53;9.30;95.50
11497;DHT22;5805;51.542;7.230;2023-04-03T06:56:21;10.20;92.00
11497;DHT22;5805;51.542;7.230;2023-04-03T06:58:47;10.50;80.10
11497;DHT22;5805;51.542;7.230;2023-04-03T07:01:15;10.20;81.00
11497;DHT22;5805;51.542;7.230;2023-04-03T07:03:41;9.90;85.60
11497;DHT22;5805;51.542;7.230;2023-04-03T07:06:09;8.70;90.00
11497;DHT22;5805;51.542;7.230;2023-04-03T07:08:36;9.10;96.70
11497;DHT22;5805;51.542;7.230;2023-04-03T07:11:03;10.40;94.00
11497;DHT22;5805;51.542;7.230;2023-04-03T07:13:30;11.40;90.30
11497;DHT22;5805;51.542;7.230;2023-04-03T07:15:55;11.20;78.70
11497;DHT22;5805;51.542;7.230;2023-04-03T07:18:21;11.00;74.10
11497;DHT22;5805;51.542;7.230;2023-04-03T07:20:47;10.50;76.50
11497;DHT22;5805;51.542;7.230;2023-04-03T07:23:13;9.60;76.30
11497;DHT22;5805;51.542;7.230;2023-04-03T07:25:42;9.00;90.90
11497;DHT22;5805;51.542;7.230;2023-04-03T07:28:08;10.30;90.60
11497;DHT22;5805;51.542;7.230;2023-04-03T07:30:42;11.40;75.00
11497;DHT22;5805;51.542;7.230;2023-04-03T07:33:08;11.60;66.90
11497;DHT22;5805;51.542;7.230;2023-04-03T07:35:33;10.40;68.30
11497;DHT22;5805;51.542;7.230;2023-04-03T07:37:59;10.40;72.80
11497;DHT22;5805;51.542;7.230;2023-04-03T07:40:25;9.70;73.20
11497;DHT22;5805;51.542;7.230;2023-04-03T07:42:50;9.00;78.20
11497;DHT22;5805;51.542;7.230;2023-04-03T07:45:16;8.50;83.80
11497;DHT22;5805;51.542;7.230;2023-04-03T07:47:43;8.10;91.10
11497;DHT22;5805;51.542;7.230;2023-04-03T07:50:10;7.90;93.30
11497;DHT22;5805;51.542;7.230;2023-04-03T07:52:35;7.60;93.40
11497;DHT22;5805;51.542;7.230;2023-04-03T07:55:01;7.50;94.60
11497;DHT22;5805;51.542;7.230;2023-04-03T07:57:27;7.40;94.70
11497;DHT22;5805;51.542;7.230;2023-04-03T07:59:52;7.40;95.20
11497;DHT22;5805;51.542;7.230;2023-04-03T08:02:18;7.10;96.00
11497;DHT22;5805;51.542;7.230;2023-04-03T08:04:45;6.70;96.20
11497;DHT22;5805;51.542;7.230;2023-04-03T08:07:11;6.40;97.30
11497;DHT22;5805;51.542;7.230;2023-04-03T08:09:36;6.40;98.40
11497;DHT22;5805;51.542;7.230;2023-04-03T08:12:02;6.50;99.30
11497;DHT22;5805;51.542;7.230;2023-04-03T08:14:30;6.70;99.10
11497;DHT22;5805;51.542;7.230;2023-04-03T08:16:56;6.90;97.60
11497;DHT22;5805;51.542;7.230;2023-04-03T08:19:22;7.00;96.90
11497;DHT22;5805;51.542;7.230;2023-04-03T08:21:49;7.20;95.70
11497;DHT22;5805;51.542;7.230;2023-04-03T08:24:15;7.10;95.70
11497;DHT22;5805;51.542;7.230;2023-04-03T08:26:40;7.30;95.80
11497;DHT22;5805;51.542;7.230;2023-04-03T08:29:06;7.50;94.90
11497;DHT22;5805;51.542;7.230;2023-04-03T08:31:31;7.70;93.90
11497;DHT22;5805;51.542;7.230;2023-04-03T08:33:57;7.90;92.50
11497;DHT22;5805;51.542;7.230;2023-04-03T08:36:25;7.80;90.20
11497;DHT22;5805;51.542;7.230;2023-04-03T08:38:53;7.70;89.00
11497;DHT22;5805;51.542;7.230;2023-04-03T08:41:24;7.60;87.50
11497;DHT22;5805;51.542;7.230;2023-04-03T08:43:58;7.60;84.70
11497;DHT22;5805;51.542;7.230;2023-04-03T08:46:35;7.60;85.60
11497;DHT22;5805;51.542;7.230;2023-04-03T08:49:02;7.70;83.50
11497;DHT22;5805;51.542;7.230;2023-04-03T08:51:30;7.90;89.20
11497;DHT22;5805;51.542;7.230;2023-04-03T08:54:01;8.10;85.50
11497;DHT22;5805;51.542;7.230;2023-04-03T08:56:28;8.30;82.90
11497;DHT22;5805;51.542;7.230;2023-04-03T08:58:57;8.30;81.10
11497;DHT22;5805;51.542;7.230;2023-04-03T09:01:26;8.30;77.50
11497;DHT22;5805;51.542;7.230;2023-04-03T09:03:53;8.40;78.20
11497;DHT22;5805;51.542;7.230;2023-04-03T09:06:20;8.50;79.10
11497;DHT22;5805;51.542;7.230;2023-04-03T09:08:50;8.70;80.80
11497;DHT22;5805;51.542;7.230;2023-04-03T09:11:24;9.00;78.10
11497;DHT22;5805;51.542;7.230;2023-04-03T09:13:54;9.30;74.50
11497;DHT22;5805;51.542;7.230;2023-04-03T09:16:30;9.40;66.10
11497;DHT22;5805;51.542;7.230;2023-04-03T09:19:10;9.30;62.50
11497;DHT22;5805;51.542;7.230;2023-04-03T09:21:39;9.40;63.30
11497;DHT22;5805;51.542;7.230;2023-04-03T09:24:06;9.60;59.80
11497;DHT22;5805;51.542;7.230;2023-04-03T09:26:36;9.80;60.40
11497;DHT22;5805;51.542;7.230;2023-04-03T09:29:07;9.60;57.60
11497;DHT22;5805;51.542;7.230;2023-04-03T09:31:37;9.60;58.70
11497;DHT22;5805;51.542;7.230;2023-04-03T09:34:06;9.70;57.40
11497;DHT22;5805;51.542;7.230;2023-04-03T09:36:38;9.60;57.10
11497;DHT22;5805;51.542;7.230;2023-04-03T09:39:05;9.60;55.90
11497;DHT22;5805;51.542;7.230;2023-04-03T09:41:30;9.40;56.40
11497;DHT22;5805;51.542;7.230;2023-04-03T09:43:57;9.60;59.50
11497;DHT22;5805;51.542;7.230;2023-04-03T09:46:29;9.60;57.70
11497;DHT22;5805;51.542;7.230;2023-04-03T09:48:57;9.60;56.80
11497;DHT22;5805;51.542;7.230;2023-04-03T09:51:25;9.60;56.40
11497;DHT22;5805;51.542;7.230;2023-04-03T09:53:51;9.70;56.40
11497;DHT22;5805;51.542;7.230;2023-04-03T09:56:23;9.80;55.40
11497;DHT22;5805;51.542;7.230;2023-04-03T09:58:50;9.80;56.60
11497;DHT22;5805;51.542;7.230;2023-04-03T10:01:29;10.00;55.40
11497;DHT22;5805;51.542;7.230;2023-04-03T10:04:09;10.40;54.40
11497;DHT22;5805;51.542;7.230;2023-04-03T10:06:37;10.20;51.60
11497;DHT22;5805;51.542;7.230;2023-04-03T10:09:06;10.20;52.20
11497;DHT22;5805;51.542;7.230;2023-04-03T10:11:32;10.30;51.50
11497;DHT22;5805;51.542;7.230;2023-04-03T10:13:58;10.20;52.40
11497;DHT22;5805;51.542;7.230;2023-04-03T10:16:28;10.30;51.10
11497;DHT22;5805;51.542;7.230;2023-04-03T10:19:15;10.40;51.00
11497;DHT22;5805;51.542;7.230;2023-04-03T10:21:49;10.50;51.30
11497;DHT22;5805;51.542;7.230;2023-04-03T10:24:23;10.40;52.60
11497;DHT22;5805;51.542;7.230;2023-04-03T10:26:56;10.50;51.30
11497;DHT22;5805;51.542;7.230;2023-04-03T10:29:31;10.70;52.00
11497;DHT22;5805;51.542;7.230;2023-04-03T10:32:09;11.10;51.80
11497;DHT22;5805;51.542;7.230;2023-04-03T10:34:42;10.70;50.40
11497;DHT22;5805;51.542;7.230;2023-04-03T10:37:16;10.70;51.20
11497;DHT22;5805;51.542;7.230;2023-04-03T10:39:52;10.80;51.00
11497;DHT22;5805;51.542;7.230;2023-04-03T10:42:25;10.50;49.00
11497;DHT22;5805;51.542;7.230;2023-04-03T10:45:07;10.40;50.80
11497;DHT22;5805;51.542;7.230;2023-04-03T10:47:40;10.50;50.20
11497;DHT22;5805;51.542;7.230;2023-04-03T10:50:23;10.50;50.00
11497;DHT22;5805;51.542;7.230;2023-04-03T10:52:57;10.50;49.50
11497;DHT22;5805;51.542;7.230;2023-04-03T10:55:34;10.50;48.80
11497;DHT22;5805;51.542;7.230;2023-04-03T10:58:01;10.60;49.40
11497;DHT22;5805;51.542;7.230;2023-04-03T11:00:35;10.50;49.00
11497;DHT22;5805;51.542;7.230;2023-04-03T11:03:08;10.60;49.80
11497;DHT22;5805;51.542;7.230;2023-04-03T11:05:40;10.70;50.20
11497;DHT22;5805;51.542;7.230;2023-04-03T11:08:13;10.70;48.60
11497;DHT22;5805;51.542;7.230;2023-04-03T11:10:44;10.40;49.00
11497;DHT22;5805;51.542;7.230;2023-04-03T11:13:12;10.50;49.60
11497;DHT22;5805;51.542;7.230;2023-04-03T11:15:39;10.60;49.70
11497;DHT22;5805;51.542;7.230;2023-04-03T11:18:11;10.70;50.20
11497;DHT22;5805;51.542;7.230;2023-04-03T11:20:41;10.70;48.00
11497;DHT22;5805;51.542;7.230;2023-04-03T11:23:13;10.60;48.70
11497;DHT22;5805;51.542;7.230;2023-04-03T11:25:42;10.50;49.00
11497;DHT22;5805;51.542;7.230;2023-04-03T11:28:13;10.50;48.20
11497;DHT22;5805;51.542;7.230;2023-04-03T11:30:44;10.70;47.50
11497;DHT22;5805;51.542;7.230;2023-04-03T11:33:28;10.70;46.80
11497;DHT22;5805;51.542;7.230;2023-04-03T11:36:00;10.80;46.10
11497;DHT22;5805;51.542;7.230;2023-04-03T11:38:29;11.00;46.50
11497;DHT22;5805;51.542;7.230;2023-04-03T11:40:57;11.20;47.00
11497;DHT22;5805;51.542;7.230;2023-04-03T11:43:25;11.00;45.10
11497;DHT22;5805;51.542;7.230;2023-04-03T11:45:54;11.10;46.30
11497;DHT22;5805;51.542;7.230;2023-04-03T11:48:48;11.00;45.50
11497;DHT22;5805;51.542;7.230;2023-04-03T11:51:39;10.60;45.40
11497;DHT22;5805;51.542;7.230;2023-04-03T11:54:43;10.70;46.70
11497;DHT22;5805;51.542;7.230;2023-04-03T11:57:43;10.70;45.00
11497;DHT22;5805;51.542;7.230;2023-04-03T12:00:48;10.80;47.50
11497;DHT22;5805;51.542;7.230;2023-04-03T12:09:29;10.70;44.20
11497;DHT22;5805;51.542;7.230;2023-04-03T12:11:59;10.40;44.90
11497;DHT22;5805;51.542;7.230;2023-04-03T12:14:25;10.40;45.30
11497;DHT22;5805;51.542;7.230;2023-04-03T12:16:53;10.60;47.40
11497;DHT22;5805;51.542;7.230;2023-04-03T12:19:36;10.70;46.50
11497;DHT22;5805;51.542;7.230;2023-04-03T12:22:11;10.90;47.30
11497;DHT22;5805;51.542;7.230;2023-04-03T12:24:39;11.00;47.00
11497;DHT22;5805;51.542;7.230;2023-04-03T12:27:17;10.90;47.00
11497;DHT22;5805;51.542;7.230;2023-04-03T12:29:50;10.80;45.70
11497;DHT22;5805;51.542;7.230;2023-04-03T12:32:25;10.60;47.00
11497;DHT22;5805;51.542;7.230;2023-04-03T12:35:03;10.80;48.70
11497;DHT22;5805;51.542;7.230;2023-04-03T12:37:43;11.10;47.10
11497;DHT22;5805;51.542;7.230;2023-04-03T12:40:21;10.70;45.50
11497;DHT22;5805;51.542;7.230;2023-04-03T12:43:05;10.80;45.90
11497;DHT22;5805;51.542;7.230;2023-04-03T12:45:41;11.00;47.80
11497;DHT22;5805;51.542;7.230;2023-04-03T12:48:14;11.10;47.70
11497;DHT22;5805;51.542;7.230;2023-04-03T12:50:41;10.80;45.20
11497;DHT22;5805;51.542;7.230;2023-04-03T12:53:12;10.70;45.90
11497;DHT22;5805;51.542;7.230;2023-04-03T12:55:40;10.50;46.50
11497;DHT22;5805;51.542;7.230;2023-04-03T12:58:22;10.60;47.90
11497;DHT22;5805;51.542;7.230;2023-04-03T13:00:59;10.70;47.70
11497;DHT22;5805;51.542;7.230;2023-04-03T13:03:26;10.60;46.50
11497;DHT22;5805;51.542;7.230;2023-04-03T13:05:53;10.80;47.40
11497;DHT22;5805;51.542;7.230;2023-04-03T13:08:19;10.70;46.80
11497;DHT22;5805;51.542;7.230;2023-04-03T13:10:54;10.60;46.80
11497;DHT22;5805;51.542;7.230;2023-04-03T13:13:20;10.40;46.90
11497;DHT22;5805;51.542;7.230;2023-04-03T13:15:47;10.60;47.90
11497;DHT22;5805;51.542;7.230;2023-04-03T13:18:28;10.60;47.20
11497;DHT22;5805;51.542;7.230;2023-04-03T13:20:58;10.70;48.60
11497;DHT22;5805;51.542;7.230;2023-04-03T13:23:25;10.60;47.00
11497;DHT22;5805;51.542;7.230;2023-04-03T13:25:52;10.70;47.80
11497;DHT22;5805;51.542;7.230;2023-04-03T13:28:20;10.80;47.90
11497;DHT22;5805;51.542;7.230;2023-04-03T13:31:01;10.70;47.60
11497;DHT22;5805;51.542;7.230;2023-04-03T13:33:29;10.60;47.80
11497;DHT22;5805;51.542;7.230;2023-04-03T13:35:56;10.60;48.00
11497;DHT22;5805;51.542;7.230;2023-04-03T13:38:25;10.70;48.70
11497;DHT22;5805;51.542;7.230;2023-04-03T13:40:55;10.60;48.00
11497;DHT22;5805;51.542;7.230;2023-04-03T13:43:23;10.30;47.20
11497;DHT22;5805;51.542;7.230;2023-04-03T13:45:59;10.10;47.40
11497;DHT22;5805;51.542;7.230;2023-04-03T13:48:25;10.10;48.00
11497;DHT22;5805;51.542;7.230;2023-04-03T13:51:02;10.00;48.30
11497;DHT22;5805;51.542;7.230;2023-04-03T13:53:30;10.10;48.00
11497;DHT22;5805;51.542;7.230;2023-04-03T13:56:17;10.10;48.30
11497;DHT22;5805;51.542;7.230;2023-04-03T13:58:56;10.00;49.90
11497;DHT22;5805;51.542;7.230;2023-04-03T14:01:23;10.20;50.20
11497;DHT22;5805;51.542;7.230;2023-04-03T14:03:53;10.20;49.30
11497;DHT22;5805;51.542;7.230;2023-04-03T14:06:19;10.30;49.90
11497;DHT22;5805;51.542;7.230;2023-04-03T14:08:45;10.40;49.10
11497;DHT22;5805;51.542;7.230;2023-04-03T14:11:14;10.50;49.80
11497;DHT22;5805;51.542;7.230;2023-04-03T14:13:42;10.40;48.30
11497;DHT22;5805;51.542;7.230;2023-04-03T14:16:11;10.30;48.30
11497;DHT22;5805;51.542;7.230;2023-04-03T14:18:37;10.30;48.40
11497;DHT22;5805;51.542;7.230;2023-04-03T14:21:03;10.40;49.50
11497;DHT22;5805;51.542;7.230;2023-04-03T14:23:29;10.50;49.10
11497;DHT22;5805;51.542;7.230;2023-04-03T14:25:55;10.50;49.20
11497;DHT22;5805;51.542;7.230;2023-04-03T14:28:22;10.50;49.60
11497;DHT22;5805;51.542;7.230;2023-04-03T14:30:50;10.50;49.40
11497;DHT22;5805;51.542;7.230;2023-04-03T14:33:18;10.40;49.20
11497;DHT22;5805;51.542;7.230;2023-04-03T14:35:45;10.30;49.00
11497;DHT22;5805;51.542;7.230;2023-04-03T14:38:22;10.30;49.00
11497;DHT22;5805;51.542;7.230;2023-04-03T14:40:48;10.20;49.60
11497;DHT22;5805;51.542;7.230;2023-04-03T14:43:14;10.10;49.30
11497;DHT22;5805;51.542;7.230;2023-04-03T14:45:39;10.10;50.00
11497;DHT22;5805;51.542;7.230;2023-04-03T14:48:11;10.10;49.70
11497;DHT22;5805;51.542;7.230;2023-04-03T14:50:40;10.00;49.90
11497;DHT22;5805;51.542;7.230;2023-04-03T14:53:06;10.00;50.50
11497;DHT22;5805;51.542;7.230;2023-04-03T14:55:32;10.00;51.20
11497;DHT22;5805;51.542;7.230;2023-04-03T14:57:58;10.10;51.60
11497;DHT22;5805;51.542;7.230;2023-04-03T15:00:24;10.10;51.40
11497;DHT22;5805;51.542;7.230;2023-04-03T15:02:50;10.00;50.10
11497;DHT22;5805;51.542;7.230;2023-04-03T15:05:18;10.10;50.20
11497;DHT22;5805;51.542;7.230;2023-04-03T15:07:47;9.40;50.60
11497;DHT22;5805;51.542;7.230;2023-04-03T15:10:17;9.30;51.60
11497;DHT22;5805;51.542;7.230;2023-04-03T15:12:44;9.30;52.00
11497;DHT22;5805;51.542;7.230;2023-04-03T15:15:10;9.30;51.40
11497;DHT22;5805;51.542;7.230;2023-04-03T15:17:36;9.30;51.10
11497;DHT22;5805;51.542;7.230;2023-04-03T15:20:03;9.30;52.30
11497;DHT22;5805;51.542;7.230;2023-04-03T15:22:30;9.30;52.10
11497;DHT22;5805;51.542;7.230;2023-04-03T15:24:56;9.30;52.30
11497;DHT22;5805;51.542;7.230;2023-04-03T15:27:21;9.20;51.60
11497;DHT22;5805;51.542;7.230;2023-04-03T15:29:47;9.30;52.20
11497;DHT22;5805;51.542;7.230;2023-04-03T15:32:13;9.40;52.10
11497;DHT22;5805;51.542;7.230;2023-04-03T15:34:39;9.50;52.70
11497;DHT22;5805;51.542;7.230;2023-04-03T15:37:05;9.40;52.30
11497;DHT22;5805;51.542;7.230;2023-04-03T15:39:32;9.60;52.60
11497;DHT22;5805;51.542;7.230;2023-04-03T15:41:58;9.60;53.00
11497;DHT22;5805;51.542;7.230;2023-04-03T15:44:24;9.70;52.50
11497;DHT22;5805;51.542;7.230;2023-04-03T15:46:49;9.70;52.70
11497;DHT22;5805;51.542;7.230;2023-04-03T15:49:16;9.80;53.00
11497;DHT22;5805;51.542;7.230;2023-04-03T15:51:42;9.70;53.20
11497;DHT22;5805;51.542;7.230;2023-04-03T15:54:08;9.70;53.30
11497;DHT22;5805;51.542;7.230;2023-04-03T15:56:35;9.40;51.90
11497;DHT22;5805;51.542;7.230;2023-04-03T15:59:00;9.20;51.40
11497;DHT22;5805;51.542;7.230;2023-04-03T16:01:26;9.10;51.50
11497;DHT22;5805;51.542;7.230;2023-04-03T16:03:52;9.20;52.10
11497;DHT22;5805;51.542;7.230;2023-04-03T16:06:18;9.30;51.80
11497;DHT22;5805;51.542;7.230;2023-04-03T16:08:44;9.00;52.00
11497;DHT22;5805;51.542;7.230;2023-04-03T16:11:11;9.00;53.20
11497;DHT22;5805;51.542;7.230;2023-04-03T16:13:38;9.10;53.60